Time;durP1;ratioP1;P1;durP2;ratioP2;P2;SDS_P1;SDS_P2;PMS_P1;PMS_P2;Temp;Humidity;BMP_temperature;BMP_pressure;BME280_temperature;BME280_humidity;BME280_pressure;Samples;Min_cycle;Max_cycle;Signal;HPM_P1;HPM_P2
2022/07/28 00:00:46;;;;;;;0.60;0.40;;;;;;;16.14;59.55;100559.56;4883900;29;20123;-76
2022/07/28 00:03:12;;;;;;;0.47;0.30;;;;;;;16.15;59.66;100558.47;4881336;29;20537;-75
2022/07/28 00:05:37;;;;;;;0.38;0.28;;;;;;;16.15;59.27;100558.47;4869283;29;20037;-75
2022/07/28 00:08:04;;;;;;;0.75;0.20;;;;;;;16.05;59.84;100553.09;4879338;29;20029;-74
2022/07/28 00:10:31;;;;;;;1.05;0.40;;;;;;;16.10;60.03;100555.78;4871578;29;20029;-74
2022/07/28 00:12:58;;;;;;;0.20;0.20;;;;;;;16.13;59.98;100557.13;4870531;29;20039;-74
2022/07/28 00:15:24;;;;;;;0.75;0.30;;;;;;;16.08;59.49;100549.75;4884062;29;20075;-75
2022/07/28 00:17:49;;;;;;;0.60;0.30;;;;;;;16.04;59.95;100552.28;4878434;29;20028;-75
2022/07/28 00:20:15;;;;;;;0.40;0.40;;;;;;;15.99;59.92;100549.59;4866859;29;20044;-75
2022/07/28 00:22:42;;;;;;;0.70;0.35;;;;;;;15.99;60.04;100555.13;4871479;29;20017;-75
2022/07/28 00:25:09;;;;;;;0.52;0.40;;;;;;;15.96;60.05;100549.38;4898712;29;20111;-76
2022/07/28 00:27:34;;;;;;;0.52;0.40;;;;;;;15.87;60.28;100541.78;4885864;29;20031;-75
2022/07/28 00:30:00;;;;;;;0.98;0.57;;;;;;;15.73;60.73;100549.13;4899881;29;20041;-76
2022/07/28 00:32:26;;;;;;;1.58;0.68;;;;;;;15.61;61.38;100544.06;4871865;29;20092;-75
2022/07/28 00:34:52;;;;;;;0.70;0.50;;;;;;;15.50;60.99;100543.38;4890192;29;20033;-74
2022/07/28 00:37:17;;;;;;;1.17;0.65;;;;;;;15.52;61.58;100546.66;4862044;29;20043;-73
2022/07/28 00:39:43;;;;;;;1.70;0.88;;;;;;;15.50;61.73;100540.63;4874589;29;20124;-76
2022/07/28 00:42:09;;;;;;;0.50;0.40;;;;;;;15.49;61.65;100541.75;4873393;29;20124;-76
2022/07/28 00:44:34;;;;;;;0.60;0.50;;;;;;;15.46;61.86;100544.25;4883580;29;20462;-75
2022/07/28 00:47:00;;;;;;;0.50;0.40;;;;;;;15.46;61.57;100536.00;4883454;29;20104;-74
2022/07/28 00:49:25;;;;;;;0.63;0.50;;;;;;;15.43;61.81;100529.13;4887432;29;20124;-74
2022/07/28 00:51:52;;;;;;;0.55;0.40;;;;;;;15.44;61.75;100539.06;4886082;29;20028;-74
2022/07/28 00:54:17;;;;;;;0.35;0.30;;;;;;;15.41;61.91;100539.66;4878245;29;20039;-74
2022/07/28 00:56:43;;;;;;;0.95;0.50;;;;;;;15.40;61.86;100538.00;4879177;29;20033;-74
2022/07/28 00:59:08;;;;;;;0.45;0.25;;;;;;;15.38;61.85;100534.72;4855036;29;20112;-74
2022/07/28 01:01:34;;;;;;;0.35;0.30;;;;;;;15.39;61.71;100530.88;4895496;29;20047;-74
2022/07/28 01:04:01;;;;;;;0.90;0.50;;;;;;;15.39;61.80;100524.50;4887414;29;20083;-72
2022/07/28 01:06:51;;;;;;;0.32;0.30;;;;;;;15.36;61.98;100524.00;4883426;29;20523;-73
2022/07/28 01:09:16;;;;;;;0.40;0.40;;;;;;;15.39;61.87;100525.34;4879200;29;20052;-74
2022/07/28 01:11:58;;;;;;;0.28;0.28;;;;;;;15.37;61.55;100524.81;4878275;29;20025;-75
2022/07/28 01:14:46;;;;;;;0.65;0.43;;;;;;;15.36;61.71;100532.28;4882502;29;20017;-76
2022/07/28 01:17:24;;;;;;;0.35;0.30;;;;;;;15.36;61.30;100524.00;4871771;29;20071;-76
2022/07/28 01:20:11;;;;;;;0.50;0.40;;;;;;;15.37;61.34;100519.31;4883381;29;20111;-74
2022/07/28 01:22:44;;;;;;;0.60;0.30;;;;;;;15.32;61.38;100519.38;4897003;29;20063;-77
2022/07/28 01:25:40;;;;;;;0.93;0.40;;;;;;;15.28;61.48;100508.13;4870852;29;20032;-75
2022/07/28 01:28:23;;;;;;;1.17;0.43;;;;;;;15.29;61.27;100514.47;4873710;29;20041;-75
2022/07/28 01:30:56;;;;;;;0.30;0.30;;;;;;;15.22;61.23;100497.47;4876447;29;20437;-74
2022/07/28 01:33:34;;;;;;;0.85;0.50;;;;;;;15.29;61.49;100508.97;4887474;29;20036;-74
2022/07/28 01:36:08;;;;;;;3.20;0.70;;;;;;;15.34;60.80;100511.63;4866478;29;20029;-74
2022/07/28 01:38:35;;;;;;;1.95;0.60;;;;;;;15.36;60.42;100499.22;4894574;29;20073;-74
2022/07/28 01:41:06;;;;;;;2.33;0.70;;;;;;;15.38;59.97;100500.84;4867022;29;20088;-73
2022/07/28 01:43:36;;;;;;;2.22;0.52;;;;;;;15.44;60.27;100494.16;4891909;29;20029;-75
2022/07/28 01:46:03;;;;;;;2.15;0.80;;;;;;;15.49;59.80;100492.16;4887941;29;20028;-74
2022/07/28 01:48:30;;;;;;;2.05;0.70;;;;;;;15.51;59.78;100492.66;4898835;29;20039;-74
2022/07/28 01:50:57;;;;;;;1.40;0.82;;;;;;;15.57;59.56;100487.09;4861296;29;20033;-74
2022/07/28 01:53:24;;;;;;;1.75;0.60;;;;;;;15.59;59.44;100490.34;4851243;29;20119;-74
2022/07/28 01:55:51;;;;;;;1.63;0.75;;;;;;;15.67;59.38;100503.47;4861943;29;20124;-74
2022/07/28 01:58:22;;;;;;;2.33;0.70;;;;;;;15.62;59.13;100492.50;4882976;29;20040;-75
2022/07/28 02:00:49;;;;;;;0.90;0.52;;;;;;;15.70;59.47;100497.34;4885463;29;20033;-75
2022/07/28 02:03:17;;;;;;;1.00;0.50;;;;;;;15.69;59.07;100495.72;4899547;29;20091;-75
2022/07/28 02:05:44;;;;;;;1.48;0.50;;;;;;;15.71;58.90;100487.94;4867854;29;20060;-75
2022/07/28 02:08:12;;;;;;;0.82;0.60;;;;;;;15.76;58.86;100490.63;4858467;29;20052;-74
2022/07/28 02:10:41;;;;;;;0.90;0.57;;;;;;;15.87;58.84;100485.81;4880247;29;20040;-75
2022/07/28 02:13:09;;;;;;;0.43;0.30;;;;;;;15.95;58.73;100484.31;4881551;29;20036;-75
2022/07/28 02:15:36;;;;;;;0.55;0.40;;;;;;;15.98;58.81;100483.72;4863392;29;20080;-73
2022/07/28 02:18:04;;;;;;;0.95;0.50;;;;;;;15.97;58.38;100485.63;4868001;29;20040;-76
2022/07/28 02:20:31;;;;;;;0.88;0.40;;;;;;;15.98;58.69;100486.47;4872308;29;20118;-74
2022/07/28 02:22:57;;;;;;;0.47;0.40;;;;;;;15.94;58.93;100485.44;4884701;29;20112;-75
2022/07/28 02:25:23;;;;;;;0.57;0.45;;;;;;;15.95;58.93;100479.63;4893440;29;20017;-74
2022/07/28 02:28:02;;;;;;;0.43;0.40;;;;;;;15.91;58.99;100464.78;4862445;29;20449;-74
2022/07/28 02:30:45;;;;;;;1.00;0.60;;;;;;;15.93;58.75;100472.75;4884263;29;20036;-73
2022/07/28 02:33:19;;;;;;;2.15;0.50;;;;;;;15.91;58.98;100463.97;4888392;29;20120;-73
2022/07/28 02:35:51;;;;;;;0.77;0.40;;;;;;;15.90;59.23;100478.88;4897167;29;20053;-74
2022/07/28 02:38:24;;;;;;;0.43;0.40;;;;;;;15.86;59.11;100468.44;4893612;29;20023;-77
2022/07/28 02:40:53;;;;;;;0.38;0.38;;;;;;;15.87;59.44;100474.78;4886082;29;20028;-72
2022/07/28 02:43:25;;;;;;;0.30;0.30;;;;;;;15.88;59.57;100462.63;4892514;29;20036;-74
2022/07/28 02:45:54;;;;;;;0.80;0.50;;;;;;;15.92;59.24;100468.38;4899710;29;20043;-75
2022/07/28 02:48:24;;;;;;;0.95;0.52;;;;;;;15.94;59.60;100463.38;4891140;29;20025;-75
2022/07/28 02:50:52;;;;;;;0.65;0.47;;;;;;;15.92;59.57;100458.16;4888444;29;20028;-74
2022/07/28 02:53:19;;;;;;;0.55;0.50;;;;;;;15.93;59.93;100451.53;4866370;29;20051;-74
2022/07/28 02:55:47;;;;;;;0.63;0.38;;;;;;;15.93;59.86;100461.72;4872146;29;20116;-74
2022/07/28 02:58:16;;;;;;;0.38;0.38;;;;;;;15.97;59.97;100454.50;4882378;29;20036;-75
2022/07/28 03:00:43;;;;;;;0.60;0.60;;;;;;;16.08;60.28;100446.84;4882564;29;20048;-75
2022/07/28 03:03:09;;;;;;;0.52;0.30;;;;;;;16.13;60.21;100460.56;4892012;29;20032;-75
2022/07/28 03:05:35;;;;;;;0.60;0.45;;;;;;;16.16;59.88;100448.94;4874983;29;20031;-75
2022/07/28 03:08:01;;;;;;;0.40;0.30;;;;;;;16.09;60.00;100449.34;4874714;29;20324;-74
2022/07/28 03:10:27;;;;;;;2.03;0.50;;;;;;;16.05;60.36;100453.81;4877814;29;20024;-74
2022/07/28 03:12:55;;;;;;;0.55;0.40;;;;;;;16.05;60.42;100448.31;4875951;29;20103;-73
2022/07/28 03:15:23;;;;;;;0.20;0.20;;;;;;;16.07;60.48;100446.03;4898371;29;21578;-74
2022/07/28 03:17:49;;;;;;;0.20;0.20;;;;;;;16.10;60.52;100450.94;4867872;29;20031;-73
2022/07/28 03:20:15;;;;;;;0.63;0.40;;;;;;;16.07;61.09;100440.53;4885745;29;20041;-74
2022/07/28 03:22:40;;;;;;;0.40;0.40;;;;;;;16.05;60.80;100442.78;4894971;29;20374;-76
2022/07/28 03:25:13;;;;;;;0.63;0.40;;;;;;;16.04;60.89;100444.69;4898455;29;20055;-74
2022/07/28 03:27:42;;;;;;;0.60;0.30;;;;;;;16.02;60.68;100441.44;4882189;29;20044;-74
2022/07/28 03:30:11;;;;;;;1.02;0.40;;;;;;;16.05;60.80;100443.59;4896922;29;20101;-73
2022/07/28 03:32:41;;;;;;;0.43;0.38;;;;;;;16.04;61.22;100441.94;4892046;29;20020;-75
2022/07/28 03:35:08;;;;;;;0.73;0.40;;;;;;;16.01;60.53;100436.22;4893310;29;20060;-74
2022/07/28 03:38:07;;;;;;;1.15;0.20;;;;;;;16.05;60.64;100445.53;4861948;29;20025;-74
2022/07/28 03:40:34;;;;;;;0.40;0.40;;;;;;;16.01;60.73;100441.75;4895871;29;20560;-74
2022/07/28 03:43:07;;;;;;;0.40;0.30;;;;;;;16.03;60.45;100445.00;4864985;29;20029;-76
2022/07/28 03:45:33;;;;;;;0.30;0.30;;;;;;;16.04;60.60;100447.47;4884704;29;20037;-76
2022/07/28 03:47:59;;;;;;;0.47;0.30;;;;;;;16.10;60.20;100439.91;4898210;29;20032;-74
2022/07/28 03:50:30;;;;;;;0.40;0.32;;;;;;;16.13;60.53;100438.50;4888987;29;20029;-75
2022/07/28 03:52:56;;;;;;;0.20;0.20;;;;;;;16.14;60.35;100429.91;4881542;29;20120;-75
2022/07/28 03:55:22;;;;;;;0.55;0.30;;;;;;;16.18;60.43;100436.47;4873365;29;20036;-75
2022/07/28 03:57:48;;;;;;;1.67;0.30;;;;;;;16.16;60.45;100435.13;4880912;29;20138;-75
2022/07/28 04:00:15;;;;;;;0.90;0.35;;;;;;;16.13;60.43;100427.47;4880199;29;20063;-73
2022/07/28 04:02:45;;;;;;;1.00;0.40;;;;;;;16.11;60.69;100430.53;4888030;29;20100;-74
2022/07/28 04:05:15;;;;;;;1.90;0.40;;;;;;;16.11;60.56;100430.53;4888721;29;20535;-72
2022/07/28 04:07:41;;;;;;;0.93;0.40;;;;;;;16.15;60.77;100422.44;4887111;29;20081;-74
2022/07/28 04:10:09;;;;;;;0.57;0.35;;;;;;;16.18;60.75;100425.44;4884821;29;20151;-73
2022/07/28 04:12:49;;;;;;;4.43;0.68;;;;;;;16.20;60.55;100428.69;4882221;29;21253;-74
2022/07/28 04:15:16;;;;;;;3.25;0.30;;;;;;;16.21;60.88;100430.34;4862851;29;20076;-75
2022/07/28 04:17:42;;;;;;;0.80;0.45;;;;;;;16.25;60.91;100429.72;4868122;29;20037;-74
2022/07/28 04:20:08;;;;;;;0.60;0.40;;;;;;;16.25;60.67;100426.97;4893781;29;20436;-74
2022/07/28 04:22:34;;;;;;;2.00;0.63;;;;;;;16.32;60.57;100430.16;4863452;29;20037;-76
2022/07/28 04:25:03;;;;;;;0.38;0.38;;;;;;;16.30;60.64;100429.66;4873639;29;20029;-74
2022/07/28 04:27:28;;;;;;;0.52;0.40;;;;;;;16.25;60.49;100430.53;4883055;29;20165;-73
2022/07/28 04:29:54;;;;;;;0.60;0.30;;;;;;;16.18;60.95;100430.16;4863634;29;20082;-73
2022/07/28 04:32:19;;;;;;;0.38;0.38;;;;;;;16.19;61.24;100432.59;4878161;29;20029;-73
2022/07/28 04:34:45;;;;;;;0.40;0.40;;;;;;;16.23;61.24;100430.84;4867711;29;20041;-74
2022/07/28 04:37:11;;;;;;;1.17;0.52;;;;;;;16.25;61.31;100421.47;4866952;29;20461;-74
2022/07/28 04:39:36;;;;;;;1.00;0.50;;;;;;;16.35;61.05;100433.13;4873724;29;20044;-73
2022/07/28 04:42:02;;;;;;;0.60;0.45;;;;;;;16.39;60.91;100430.56;4889813;29;20064;-72
2022/07/28 04:44:27;;;;;;;0.25;0.25;;;;;;;16.50;60.69;100426.50;4844600;29;20032;-72
2022/07/28 04:46:53;;;;;;;0.30;0.30;;;;;;;16.52;60.62;100429.75;4877600;29;20468;-74
2022/07/28 04:49:18;;;;;;;0.50;0.50;;;;;;;16.48;60.84;100439.78;4860058;29;20033;-74
2022/07/28 04:51:48;;;;;;;1.05;0.47;;;;;;;16.48;60.94;100428.72;4866677;29;20036;-74
2022/07/28 04:54:14;;;;;;;0.95;0.50;;;;;;;16.48;60.95;100438.97;4883317;29;20465;-75
2022/07/28 04:56:39;;;;;;;1.40;0.50;;;;;;;16.48;60.93;100428.72;4892402;29;20573;-73
2022/07/28 04:59:05;;;;;;;0.88;0.60;;;;;;;16.48;61.25;100434.25;4863627;29;20024;-74
2022/07/28 05:01:30;;;;;;;1.27;0.60;;;;;;;16.51;60.93;100422.59;4900546;29;20059;-74
2022/07/28 05:03:56;;;;;;;1.00;0.70;;;;;;;16.53;61.22;100428.66;4872978;29;20434;-74
2022/07/28 05:06:21;;;;;;;1.45;0.50;;;;;;;16.50;60.93;100429.25;4886701;29;20057;-75
2022/07/28 05:08:48;;;;;;;1.20;0.63;;;;;;;16.51;61.22;100428.13;4897836;29;20043;-75
2022/07/28 05:11:14;;;;;;;0.82;0.50;;;;;;;16.46;61.50;100421.91;4871344;29;20037;-74
2022/07/28 05:13:40;;;;;;;0.73;0.47;;;;;;;16.52;61.31;100420.69;4861345;29;20056;-74
2022/07/28 05:16:05;;;;;;;0.82;0.60;;;;;;;16.58;61.51;100423.00;4875358;29;20025;-75
2022/07/28 05:18:31;;;;;;;0.88;0.50;;;;;;;16.60;61.40;100425.47;4882756;29;20104;-73
2022/07/28 05:24:19;;;;;;;0.43;0.30;;;;;;;16.61;61.47;100426.31;4890674;29;20033;-74
2022/07/28 05:26:50;;;;;;;2.30;0.70;;;;;;;16.62;61.57;100430.66;4879274;29;20051;-73
2022/07/28 05:29:15;;;;;;;1.38;0.60;;;;;;;16.65;61.22;100432.84;4871896;29;20021;-73
2022/07/28 05:31:41;;;;;;;0.50;0.40;;;;;;;16.66;61.43;100424.25;4877283;29;20040;-74
2022/07/28 05:34:06;;;;;;;1.10;0.47;;;;;;;16.68;61.41;100426.72;4867910;29;20053;-73
2022/07/28 05:36:32;;;;;;;0.35;0.30;;;;;;;16.67;61.43;100414.03;4897824;29;20029;-76
2022/07/28 05:38:58;;;;;;;2.05;0.60;;;;;;;16.75;61.66;100418.84;4882215;29;20036;-75
2022/07/28 05:41:23;;;;;;;0.75;0.43;;;;;;;16.79;61.89;100430.06;4878566;29;20037;-75
2022/07/28 05:43:49;;;;;;;0.50;0.43;;;;;;;16.84;60.92;100429.97;4850047;29;20039;-72
2022/07/28 05:46:14;;;;;;;4.50;0.70;;;;;;;16.82;61.51;100427.53;4875060;29;20421;-74
2022/07/28 05:48:39;;;;;;;0.40;0.40;;;;;;;16.84;61.62;100427.22;4870350;29;20078;-74
2022/07/28 05:51:05;;;;;;;2.38;0.50;;;;;;;16.88;61.58;100431.84;4875001;29;20033;-73
2022/07/28 05:53:30;;;;;;;1.45;0.50;;;;;;;16.88;61.58;100420.78;4858131;29;20035;-74
2022/07/28 05:55:56;;;;;;;0.82;0.55;;;;;;;16.92;61.32;100424.56;4856393;29;20029;-74
2022/07/28 05:58:22;;;;;;;0.68;0.47;;;;;;;16.99;61.44;100426.09;4894158;29;20031;-73
2022/07/28 06:00:48;;;;;;;0.95;0.50;;;;;;;17.03;61.38;100424.34;4893312;29;20065;-75
2022/07/28 06:03:14;;;;;;;0.65;0.50;;;;;;;17.05;60.93;100428.41;4892537;29;20036;-74
2022/07/28 06:05:40;;;;;;;1.27;0.47;;;;;;;17.06;61.22;100434.78;4890491;29;20032;-75
2022/07/28 06:08:05;;;;;;;0.52;0.40;;;;;;;17.08;61.52;100429.75;4886214;29;20575;-74
2022/07/28 06:13:15;;;;;;;1.20;0.40;;;;;;;17.12;61.74;100430.78;4888462;29;20126;-75
2022/07/28 06:15:41;;;;;;;0.40;0.40;;;;;;;17.13;61.50;100426.06;4886893;29;20044;-75
2022/07/28 06:18:07;;;;;;;2.22;0.60;;;;;;;17.14;61.68;100430.47;4879009;29;20543;-73
2022/07/28 06:20:33;;;;;;;0.80;0.50;;;;;;;17.11;61.56;100423.59;4882269;29;20503;-74
2022/07/28 06:22:58;;;;;;;1.33;0.52;;;;;;;17.16;61.23;100431.00;4904019;29;20017;-74
2022/07/28 06:25:28;;;;;;;2.03;0.65;;;;;;;17.24;61.41;100428.31;4890094;29;20043;-73
2022/07/28 06:27:55;;;;;;;1.98;0.52;;;;;;;17.27;61.84;100433.22;4875920;29;20108;-75
2022/07/28 06:30:22;;;;;;;1.77;0.50;;;;;;;17.30;61.58;100430.94;4858601;29;20040;-74
2022/07/28 06:32:48;;;;;;;0.63;0.50;;;;;;;17.41;61.39;100432.34;4896093;29;20052;-74
2022/07/28 06:35:15;;;;;;;1.50;0.68;;;;;;;17.46;60.94;100426.69;4874874;29;20414;-73
2022/07/28 06:37:45;;;;;;;1.92;0.50;;;;;;;17.58;60.70;100423.38;4869352;29;20404;-73
2022/07/28 06:40:11;;;;;;;0.40;0.40;;;;;;;17.66;61.03;100428.16;4865288;29;20045;-74
2022/07/28 06:42:37;;;;;;;0.30;0.30;;;;;;;17.73;60.54;100422.19;4882304;29;20106;-73
2022/07/28 06:45:04;;;;;;;0.85;0.50;;;;;;;17.79;60.41;100426.47;4874923;29;20025;-74
2022/07/28 06:47:30;;;;;;;0.63;0.50;;;;;;;17.83;60.75;100421.94;4860692;29;20041;-76
2022/07/28 06:49:55;;;;;;;0.73;0.40;;;;;;;17.86;60.58;100426.84;4869453;29;20151;-74
2022/07/28 06:52:21;;;;;;;0.82;0.50;;;;;;;17.88;60.00;100424.56;4878763;29;20029;-74
2022/07/28 06:54:49;;;;;;;1.40;0.40;;;;;;;17.87;60.42;100420.19;4897048;29;20567;-72
2022/07/28 06:57:15;;;;;;;1.77;0.70;;;;;;;17.88;60.63;100421.78;4888979;29;20028;-73
2022/07/28 06:59:40;;;;;;;1.35;0.70;;;;;;;17.89;60.71;100415.13;4892773;29;20045;-73
2022/07/28 07:02:06;;;;;;;1.92;0.77;;;;;;;17.98;60.69;100417.19;4888310;29;20041;-73
2022/07/28 07:04:32;;;;;;;1.65;0.65;;;;;;;18.08;60.84;100411.38;4859587;29;20028;-72
2022/07/28 07:06:58;;;;;;;2.58;0.73;;;;;;;18.18;60.01;100410.28;4888726;29;20052;-72
2022/07/28 07:09:23;;;;;;;1.27;0.50;;;;;;;18.31;60.28;100410.19;4874385;29;20035;-72
2022/07/28 07:11:49;;;;;;;0.80;0.47;;;;;;;18.42;59.75;100415.44;4873283;29;20559;-75
2022/07/28 07:14:14;;;;;;;2.90;1.35;;;;;;;18.60;58.87;100416.31;4857476;29;20040;-73
2022/07/28 07:16:40;;;;;;;3.08;0.90;;;;;;;18.83;59.30;100425.34;4870845;29;20068;-74
2022/07/28 07:19:05;;;;;;;2.78;0.88;;;;;;;19.01;58.14;100417.94;4876268;29;20056;-73
2022/07/28 07:21:31;;;;;;;1.40;0.65;;;;;;;19.08;58.19;100415.50;4881373;29;20523;-73
2022/07/28 07:23:57;;;;;;;0.70;0.70;;;;;;;19.19;57.85;100422.38;4866794;29;20785;-75
2022/07/28 07:26:23;;;;;;;2.00;0.80;;;;;;;19.18;58.15;100414.38;4877275;29;20043;-72
2022/07/28 07:28:49;;;;;;;1.38;0.70;;;;;;;19.30;57.76;100428.44;4893047;29;20036;-74
2022/07/28 07:31:14;;;;;;;1.10;0.70;;;;;;;19.45;57.84;100429.06;4880263;29;20041;-74
2022/07/28 07:33:40;;;;;;;6.20;0.80;;;;;;;19.66;57.47;100418.94;4873484;29;20404;-74
2022/07/28 07:36:05;;;;;;;2.95;0.70;;;;;;;19.83;56.76;100423.69;4872360;29;20519;-73
2022/07/28 07:38:31;;;;;;;3.33;0.70;;;;;;;19.99;56.35;100421.22;4881004;29;20353;-74
2022/07/28 07:40:58;;;;;;;4.15;0.57;;;;;;;20.22;55.92;100423.75;4879610;29;20819;-73
2022/07/28 07:43:24;;;;;;;2.97;0.60;;;;;;;20.27;55.96;100406.94;4876019;29;20445;-73
2022/07/28 07:45:49;;;;;;;1.65;0.80;;;;;;;20.49;55.42;100421.72;4891472;29;20028;-73
2022/07/28 07:48:15;;;;;;;3.28;1.40;;;;;;;20.58;55.18;100417.72;4878492;29;20424;-72
2022/07/28 07:50:40;;;;;;;1.00;0.73;;;;;;;20.68;55.02;100424.13;4877620;29;20072;-73
2022/07/28 07:53:07;;;;;;;2.38;1.10;;;;;;;20.72;54.78;100419.50;4871065;29;20041;-71
2022/07/28 07:55:33;;;;;;;1.55;0.85;;;;;;;20.74;54.67;100406.91;4875144;29;20571;-73
2022/07/28 07:57:58;;;;;;;1.88;0.60;;;;;;;20.99;54.23;100420.19;4895260;29;20067;-73
2022/07/28 08:00:24;;;;;;;1.75;1.10;;;;;;;21.19;53.83;100418.56;4870974;29;20059;-71
2022/07/28 08:02:49;;;;;;;2.63;0.75;;;;;;;21.37;53.17;100420.06;4884839;29;20032;-70
2022/07/28 08:05:16;;;;;;;0.63;0.50;;;;;;;21.49;53.05;100421.28;4865617;29;20033;-69
2022/07/28 08:07:41;;;;;;;1.85;0.80;;;;;;;21.54;52.27;100418.34;4876694;29;20095;-70
2022/07/28 08:10:07;;;;;;;1.95;0.55;;;;;;;21.57;52.23;100420.44;4866344;29;20065;-70
2022/07/28 08:12:33;;;;;;;3.88;1.00;;;;;;;21.65;51.63;100411.19;4885439;29;20423;-71
2022/07/28 08:14:58;;;;;;;7.80;0.80;;;;;;;21.69;51.74;100422.44;4876799;29;20032;-70
2022/07/28 08:17:24;;;;;;;2.25;0.80;;;;;;;21.75;51.49;100419.09;4873930;29;20557;-71
2022/07/28 08:19:49;;;;;;;1.73;0.80;;;;;;;21.86;50.92;100422.28;4890030;29;20025;-69
2022/07/28 08:22:16;;;;;;;6.55;0.75;;;;;;;21.99;50.81;100420.34;4871445;29;20028;-70
2022/07/28 08:24:41;;;;;;;1.70;0.82;;;;;;;22.02;50.81;100421.63;4889589;29;20036;-69
2022/07/28 08:27:07;;;;;;;1.77;0.70;;;;;;;21.93;50.40;100424.50;4890335;29;20802;-70
2022/07/28 08:29:33;;;;;;;1.10;0.60;;;;;;;21.92;50.01;100431.25;4888463;29;20061;-71
2022/07/28 08:32:00;;;;;;;2.38;0.68;;;;;;;21.93;50.03;100432.84;4855491;29;20135;-70
2022/07/28 08:34:25;;;;;;;1.77;0.70;;;;;;;21.97;49.94;100412.31;4864655;29;21708;-70
2022/07/28 08:36:50;;;;;;;1.38;0.50;;;;;;;;;;4858813;29;20043;-70
2022/07/28 08:39:16;;;;;;;2.33;0.80;;;;;;;22.08;49.32;100429.41;4864864;29;20021;-71
2022/07/28 08:41:47;;;;;;;2.90;0.95;;;;;;;22.01;49.02;100418.03;4875067;29;20081;-70
2022/07/28 08:44:16;;;;;;;2.55;1.15;;;;;;;22.00;49.87;100416.41;4888817;29;20017;-70
2022/07/28 08:46:42;;;;;;;4.10;1.10;;;;;;;22.02;49.33;100413.28;4876800;29;20085;-70
2022/07/28 08:49:08;;;;;;;1.30;1.00;;;;;;;22.04;49.74;100416.53;4870539;29;20082;-70
2022/07/28 08:51:35;;;;;;;4.90;1.17;;;;;;;22.21;49.70;100410.78;4874392;29;20060;-70
2022/07/28 08:54:02;;;;;;;2.38;0.85;;;;;;;22.41;48.81;100417.44;4873997;29;20025;-69
2022/07/28 08:56:28;;;;;;;4.72;0.90;;;;;;;22.62;48.72;100414.56;4893693;29;20037;-70
2022/07/28 08:58:54;;;;;;;1.65;0.75;;;;;;;22.78;48.52;100405.47;4871892;29;20502;-69
2022/07/28 09:01:22;;;;;;;4.70;0.90;;;;;;;22.93;47.28;100409.53;4868052;29;20664;-70
2022/07/28 09:03:48;;;;;;;4.13;1.17;;;;;;;22.84;45.99;100416.06;4875375;29;20136;-72
2022/07/28 09:06:13;;;;;;;3.22;0.93;;;;;;;22.94;46.59;100411.16;4891746;29;20109;-72
2022/07/28 09:08:42;;;;;;;0.75;0.50;;;;;;;22.90;46.42;100413.03;4884667;29;20710;-72
2022/07/28 09:11:07;;;;;;;1.17;0.60;;;;;;;22.98;45.63;100409.28;4888492;29;20522;-70
2022/07/28 09:13:34;;;;;;;7.40;1.00;;;;;;;23.09;45.87;100406.84;4888807;29;20032;-69
2022/07/28 09:15:59;;;;;;;2.05;0.80;;;;;;;23.27;45.27;100410.22;4848096;29;20485;-69
2022/07/28 09:18:25;;;;;;;3.05;0.95;;;;;;;23.48;44.88;100410.84;4869686;29;20040;-71
2022/07/28 09:20:50;;;;;;;3.45;0.82;;;;;;;23.75;45.02;100413.97;4871512;29;20145;-70
2022/07/28 09:23:16;;;;;;;5.28;0.85;;;;;;;24.00;44.25;100414.69;4889949;29;20040;-72
2022/07/28 09:25:41;;;;;;;3.38;0.75;;;;;;;24.23;43.41;100400.94;4875888;29;20028;-70
2022/07/28 09:28:13;;;;;;;1.13;0.77;;;;;;;24.54;42.49;100407.69;4868460;29;20046;-70
2022/07/28 09:30:45;;;;;;;3.30;0.77;;;;;;;24.89;41.75;100398.56;4880269;29;20037;-71
2022/07/28 09:33:28;;;;;;;4.82;0.98;;;;;;;25.29;41.14;100409.81;4865076;29;20081;-71
2022/07/28 09:35:56;;;;;;;2.20;0.70;;;;;;;25.48;40.15;100414.66;4872871;29;20025;-69
2022/07/28 09:38:24;;;;;;;4.70;0.75;;;;;;;25.30;39.94;100414.25;4876935;29;20515;-70
2022/07/28 09:41:05;;;;;;;1.70;0.57;;;;;;;25.70;40.21;100418.69;4869343;29;20039;-70
2022/07/28 09:43:36;;;;;;;5.75;0.95;;;;;;;26.26;38.54;100415.38;4876075;29;20476;-70
2022/07/28 09:46:14;;;;;;;2.47;0.70;;;;;;;26.83;38.32;100415.53;4870094;29;20032;-70
2022/07/28 09:48:49;;;;;;;2.45;0.75;;;;;;;26.92;37.69;100409.66;4871718;29;20040;-71
2022/07/28 09:51:16;;;;;;;0.73;0.47;;;;;;;27.40;37.89;100408.34;4874170;29;20040;-71
2022/07/28 09:53:43;;;;;;;3.83;0.60;;;;;;;28.53;36.43;100406.28;4887501;29;20028;-70
2022/07/28 09:56:10;;;;;;;2.72;1.10;;;;;;;29.85;33.38;100413.94;4874631;29;20064;-71
2022/07/28 09:58:36;;;;;;;2.97;1.00;;;;;;;30.69;32.01;100409.97;4880289;29;20024;-70
2022/07/28 10:01:08;;;;;;;7.18;1.45;;;;;;;31.31;28.91;100417.13;4869096;29;20032;-70
2022/07/28 10:03:47;;;;;;;2.65;0.88;;;;;;;30.25;29.73;100408.34;4889613;29;20042;-71
2022/07/28 10:06:15;;;;;;;2.50;0.80;;;;;;;29.20;32.25;100407.97;4891741;29;20104;-71
2022/07/28 10:08:49;;;;;;;3.58;1.00;;;;;;;28.95;32.76;100407.03;4876776;29;20036;-71
2022/07/28 10:11:26;;;;;;;2.22;0.63;;;;;;;29.22;33.51;100405.63;4888514;29;20033;-71
2022/07/28 10:14:01;;;;;;;1.73;0.68;;;;;;;30.11;31.85;100409.16;4888021;29;20021;-72
2022/07/28 10:16:29;;;;;;;1.98;0.60;;;;;;;29.61;31.58;100421.06;4871774;29;20104;-70
2022/07/28 10:18:58;;;;;;;1.27;0.55;;;;;;;29.35;31.54;100408.91;4892092;29;20037;-71
2022/07/28 10:21:24;;;;;;;1.70;0.75;;;;;;;29.11;31.34;100403.91;4883649;29;20497;-70
2022/07/28 10:23:55;;;;;;;2.92;0.73;;;;;;;29.03;31.45;100414.31;4892576;29;20147;-71
2022/07/28 10:26:28;;;;;;;6.30;1.27;;;;;;;29.23;31.08;100412.03;4890143;29;20024;-70
2022/07/28 10:28:55;;;;;;;1.92;0.43;;;;;;;29.84;30.54;100411.50;4869518;29;20033;-71
2022/07/28 10:31:34;;;;;;;1.15;0.75;;;;;;;30.35;30.99;100412.38;4889947;29;20076;-71
2022/07/28 10:34:01;;;;;;;3.42;1.00;;;;;;;29.74;28.50;100402.56;4890513;29;20098;-70
2022/07/28 10:36:29;;;;;;;2.25;0.70;;;;;;;28.96;29.38;100403.84;4891394;29;20069;-70
2022/07/28 10:39:03;;;;;;;1.33;0.50;;;;;;;28.46;30.54;100403.44;4883697;29;20045;-71
2022/07/28 10:41:35;;;;;;;2.22;0.65;;;;;;;27.86;31.35;100406.06;4878718;29;20052;-70
2022/07/28 10:44:04;;;;;;;3.22;0.43;;;;;;;27.29;31.70;100410.97;4877642;29;20064;-70
2022/07/28 10:46:30;;;;;;;5.25;0.70;;;;;;;26.93;32.27;100410.47;4892404;29;20029;-71
2022/07/28 10:48:57;;;;;;;2.85;0.65;;;;;;;26.85;32.24;100412.34;4855258;29;20040;-70
2022/07/28 10:51:23;;;;;;;1.83;0.50;;;;;;;26.74;32.61;100405.78;4891455;29;20029;-71
2022/07/28 10:54:15;;;;;;;1.75;0.50;;;;;;;27.07;32.14;100421.09;4866300;29;20052;-72
2022/07/28 10:57:09;;;;;;;2.95;0.70;;;;;;;27.40;31.90;100411.16;4874126;29;20041;-71
2022/07/28 10:59:53;;;;;;;;;;;;;;;27.36;30.41;100413.88;4883486;29;20033;-69
2022/07/28 11:02:49;;;;;;;1.10;0.60;;;;;;;27.30;30.75;100407.75;4893319;29;19985;-69
2022/07/28 11:05:35;;;;;;;3.50;0.80;;;;;;;27.22;30.72;100408.88;4889218;29;20020;-70
2022/07/28 11:08:04;;;;;;;2.38;0.68;;;;;;;27.59;30.06;100419.41;4874292;29;20396;-70
2022/07/28 11:10:43;;;;;;;3.40;0.73;;;;;;;27.71;30.38;100425.97;4885755;29;20559;-71
2022/07/28 11:13:29;;;;;;;2.35;0.70;;;;;;;28.24;29.48;100419.31;4869544;29;20119;-72
2022/07/28 11:15:57;;;;;;;3.08;0.70;;;;;;;28.18;29.38;100410.41;4875290;29;20107;-70
2022/07/28 11:18:22;;;;;;;1.35;0.57;;;;;;;28.59;29.23;100409.56;4885742;29;20041;-71
2022/07/28 11:20:57;;;;;;;7.10;1.38;;;;;;;29.06;27.76;100425.59;4890369;29;20033;-71
2022/07/28 11:23:42;;;;;;;2.03;0.60;;;;;;;29.25;28.72;100412.47;4870866;29;20119;-70
2022/07/28 11:26:19;;;;;;;1.88;0.73;;;;;;;29.86;25.96;100420.34;4881370;29;20389;-70
2022/07/28 11:29:07;;;;;;;1.30;0.65;;;;;;;30.84;26.18;100419.25;4882934;29;20039;-70
2022/07/28 11:31:47;;;;;;;1.38;0.50;;;;;;;32.65;23.58;100416.31;4877732;29;20032;-71
2022/07/28 11:34:14;;;;;;;1.20;0.52;;;;;;;32.86;22.67;100415.38;4886781;29;20032;-70
2022/07/28 11:37:01;;;;;;;1.45;0.65;;;;;;;33.77;20.94;100430.13;4896495;29;20024;-73
2022/07/28 11:39:28;;;;;;;2.67;0.80;;;;;;;35.33;19.76;100425.53;4887364;29;20041;-70